Terminal Aerodrome Forecast
Issued by NWS

Home | Current Version | Previous Version | Text Only | Print | Product List | Glossary On
Versions: 1 2 3 4 5 6 7 8 9 10 11 12 13 14
000
FTAK31 PAJN 071132
TAFAKT
TAF
PAKT 071132Z 0712/0812 15015G25KT P6SM -RA OVC025 WS020/14040KT
     FM071500 14020G35KT 2SM RA BR BKN015 OVC025 WS020/15045KT
     FM071900 16010G20KT 3SM RA BR OVC015
     FM072300 15010KT 4SM -SHRA BR SCT007 OVC015
     FM080400 15013G18KT 4SM -RA BR SCT007 OVC015
      AMD LTD TO CLD VIS AND WIND 0712/0715=

USA.gov is the U.S. government's official web portal to all federal, state and local government web resources and services.